createdAt,value
2018-04-29T00:00:14.926Z,12.70
2018-04-29T00:02:42.404Z,12.60
2018-04-29T00:05:13.389Z,12.60
2018-04-29T00:07:40.881Z,12.60
2018-04-29T00:10:08.588Z,12.70
2018-04-29T00:12:36.071Z,12.60
2018-04-29T00:15:03.936Z,12.50
2018-04-29T00:17:32.188Z,12.50
2018-04-29T00:20:07.244Z,12.50
2018-04-29T00:22:34.739Z,12.40
2018-04-29T00:25:02.241Z,12.40
2018-04-29T00:27:29.701Z,12.50
2018-04-29T00:29:57.173Z,12.50
2018-04-29T00:32:25.434Z,12.70
2018-04-29T00:34:53.830Z,12.60
2018-04-29T00:37:25.365Z,12.70
2018-04-29T00:39:55.249Z,12.80
2018-04-29T00:42:23.056Z,12.80
2018-04-29T00:44:51.354Z,12.90
2018-04-29T00:47:18.912Z,12.90
2018-04-29T00:49:46.365Z,12.90
2018-04-29T00:52:14.160Z,12.90
2018-04-29T00:54:41.618Z,12.90
2018-04-29T00:57:09.131Z,12.90
2018-04-29T00:59:36.731Z,13.00
2018-04-29T01:02:04.292Z,13.00
2018-04-29T01:04:32.680Z,13.20
2018-04-29T01:07:00.191Z,13.20
2018-04-29T01:09:27.643Z,13.20
2018-04-29T01:11:55.137Z,13.10
2018-04-29T01:14:22.614Z,13.10
2018-04-29T01:16:50.077Z,13.20
2018-04-29T01:19:17.563Z,13.20
2018-04-29T01:21:46.703Z,13.20
2018-04-29T01:24:14.221Z,13.20
2018-04-29T01:26:41.672Z,13.20
2018-04-29T01:29:09.165Z,13.30
2018-04-29T01:31:36.608Z,13.30
2018-04-29T01:34:04.076Z,13.30
2018-04-29T01:36:35.293Z,13.30
2018-04-29T01:39:02.795Z,13.20
2018-04-29T01:41:30.438Z,13.20
2018-04-29T01:43:58.074Z,13.20
2018-04-29T01:46:25.564Z,13.20
2018-04-29T01:48:53.808Z,13.10
2018-04-29T01:51:22.047Z,12.80
2018-04-29T01:53:49.974Z,12.80
2018-04-29T01:56:17.510Z,12.30
2018-04-29T01:58:44.993Z,12.10
2018-04-29T02:01:12.485Z,11.80
2018-04-29T02:03:39.983Z,11.70
2018-04-29T02:06:07.460Z,11.40
2018-04-29T02:08:35.685Z,11.30
2018-04-29T02:11:03.209Z,11.30
2018-04-29T02:13:30.697Z,11.30
2018-04-29T02:15:58.200Z,11.40
2018-04-29T02:18:26.636Z,11.60
2018-04-29T02:20:54.086Z,11.50
2018-04-29T02:23:23.305Z,11.70
2018-04-29T02:25:50.803Z,11.70
2018-04-29T02:28:18.272Z,11.70
2018-04-29T02:30:45.755Z,11.70
2018-04-29T02:33:13.262Z,11.80
2018-04-29T02:35:43.148Z,11.70
2018-04-29T02:38:10.610Z,11.70
2018-04-29T02:40:38.101Z,11.70
2018-04-29T02:43:05.582Z,11.70
2018-04-29T02:45:33.056Z,11.70
2018-04-29T02:48:00.901Z,11.70
2018-04-29T02:50:28.390Z,11.70
2018-04-29T02:52:56.245Z,11.70
2018-04-29T02:55:23.754Z,11.60
2018-04-29T02:57:51.206Z,11.50
2018-04-29T03:00:18.667Z,11.40
2018-04-29T03:02:48.373Z,11.30
2018-04-29T03:05:15.837Z,11.40
2018-04-29T03:07:46.591Z,11.50
2018-04-29T03:10:19.079Z,11.50
2018-04-29T03:12:46.578Z,11.50
2018-04-29T03:15:14.038Z,11.50
2018-04-29T03:17:41.493Z,11.50
2018-04-29T03:20:09.935Z,11.40
2018-04-29T03:22:37.403Z,11.30
2018-04-29T03:25:04.865Z,11.40
2018-04-29T03:27:32.358Z,11.50
2018-04-29T03:29:59.864Z,11.50
2018-04-29T03:32:27.338Z,11.50
2018-04-29T03:34:54.805Z,11.40
2018-04-29T03:37:22.308Z,11.30
2018-04-29T03:39:49.769Z,11.40
2018-04-29T03:42:18.268Z,11.50
2018-04-29T03:44:45.754Z,11.50
2018-04-29T03:47:13.216Z,11.60
2018-04-29T03:49:40.718Z,11.70
2018-04-29T03:52:08.225Z,11.60
2018-04-29T03:54:35.964Z,11.60
2018-04-29T03:57:15.117Z,11.50
2018-04-29T03:59:54.387Z,11.50
2018-04-29T04:02:33.593Z,11.60
2018-04-29T04:05:01.610Z,11.60
2018-04-29T04:07:29.107Z,11.60
2018-04-29T04:09:57.245Z,11.60
2018-04-29T04:12:25.456Z,11.50
2018-04-29T04:14:53.719Z,11.50
2018-04-29T04:17:22.681Z,11.50
2018-04-29T04:19:50.184Z,11.50
2018-04-29T04:22:17.799Z,11.60
2018-04-29T04:24:45.257Z,11.60
2018-04-29T04:27:12.714Z,11.70
2018-04-29T04:29:41.029Z,11.60
2018-04-29T04:32:08.517Z,11.60
2018-04-29T04:34:35.975Z,11.60
2018-04-29T04:37:03.435Z,11.60
2018-04-29T04:39:34.189Z,11.70
2018-04-29T04:42:01.644Z,11.70
2018-04-29T04:44:29.143Z,11.80
2018-04-29T04:46:56.610Z,12.00
2018-04-29T04:49:25.019Z,12.20
2018-04-29T04:51:53.049Z,12.70
2018-04-29T04:54:20.534Z,13.30
2018-04-29T04:56:48.023Z,14.10
2018-04-29T04:59:16.146Z,15.10
2018-04-29T05:01:44.009Z,16.10
2018-04-29T05:04:11.516Z,17.00
2018-04-29T05:06:40.012Z,18.20
2018-04-29T05:09:07.465Z,18.20
2018-04-29T05:11:39.531Z,18.50
2018-04-29T05:14:07.009Z,18.80
2018-04-29T05:16:34.503Z,18.80
2018-04-29T05:19:01.973Z,18.70
2018-04-29T05:21:29.491Z,19.00
2018-04-29T05:23:56.940Z,19.40
2018-04-29T05:26:35.768Z,19.50
2018-04-29T05:29:03.241Z,19.60
2018-04-29T05:31:30.744Z,19.80
2018-04-29T05:33:58.226Z,20.00
2018-04-29T05:36:26.490Z,20.70
2018-04-29T05:38:54.725Z,20.90
2018-04-29T05:41:22.188Z,20.90
2018-04-29T05:43:49.678Z,21.20
2018-04-29T05:46:17.146Z,21.30
2018-04-29T05:48:44.615Z,21.10
2018-04-29T05:51:13.655Z,20.60
2018-04-29T05:53:41.150Z,20.50
2018-04-29T05:56:12.344Z,20.10
2018-04-29T05:58:39.806Z,19.50
2018-04-29T06:01:07.868Z,19.00
2018-04-29T06:03:35.366Z,19.20
2018-04-29T06:06:02.811Z,19.90
2018-04-29T06:08:30.302Z,20.70
2018-04-29T06:11:02.260Z,20.80
2018-04-29T06:13:29.713Z,20.80
2018-04-29T06:15:57.217Z,20.10
2018-04-29T06:18:24.714Z,19.40
2018-04-29T06:20:52.183Z,18.80
2018-04-29T06:23:19.664Z,18.20
2018-04-29T06:25:47.906Z,17.70
2018-04-29T06:28:16.320Z,17.70
2018-04-29T06:30:43.795Z,17.60
2018-04-29T06:33:11.278Z,17.50
2018-04-29T06:35:38.760Z,17.50
2018-04-29T06:38:06.233Z,17.40
2018-04-29T06:40:33.713Z,17.40
2018-04-29T06:43:01.170Z,17.40
2018-04-29T06:45:28.642Z,17.40
2018-04-29T06:47:56.143Z,17.40
2018-04-29T06:50:23.645Z,17.50
2018-04-29T06:52:51.101Z,17.60
2018-04-29T06:55:19.395Z,17.70
2018-04-29T06:57:46.898Z,17.70
2018-04-29T07:00:14.382Z,17.70
2018-04-29T07:02:42.615Z,17.80
2018-04-29T07:05:10.077Z,17.80
2018-04-29T07:07:38.434Z,17.80
2018-04-29T07:10:05.901Z,17.80
2018-04-29T07:12:33.954Z,17.70
2018-04-29T07:15:01.421Z,17.70
2018-04-29T07:17:28.911Z,17.70
2018-04-29T07:19:56.474Z,17.80
2018-04-29T07:22:23.891Z,17.80
2018-04-29T07:24:52.273Z,17.80
2018-04-29T07:27:23.241Z,17.80
2018-04-29T07:29:50.725Z,17.90
2018-04-29T07:32:18.234Z,18.10
2018-04-29T07:34:45.729Z,18.40
2018-04-29T07:37:13.200Z,18.50
2018-04-29T07:39:42.362Z,18.70
2018-04-29T07:42:09.820Z,18.70
2018-04-29T07:44:37.313Z,18.80
2018-04-29T07:47:04.780Z,18.80
2018-04-29T07:49:32.273Z,18.90
2018-04-29T07:52:00.647Z,18.80
2018-04-29T07:54:28.131Z,18.80
2018-04-29T07:56:55.610Z,18.80
2018-04-29T07:59:23.083Z,18.90
2018-04-29T08:01:51.340Z,19.00
2018-04-29T08:04:21.250Z,19.00
2018-04-29T08:06:48.785Z,19.00
2018-04-29T08:09:16.223Z,19.10
2018-04-29T08:11:44.624Z,19.20
2018-04-29T08:14:16.002Z,19.30
2018-04-29T08:16:43.445Z,19.40
2018-04-29T08:19:10.909Z,19.50
2018-04-29T08:21:38.411Z,19.60
2018-04-29T08:24:05.876Z,19.70
2018-04-29T08:26:35.349Z,19.80
2018-04-29T08:29:02.841Z,19.90
2018-04-29T08:31:30.301Z,20.00
2018-04-29T08:33:57.800Z,20.10
2018-04-29T08:36:25.366Z,20.20
2018-04-29T08:38:53.517Z,20.30
2018-04-29T08:41:21.000Z,20.40
2018-04-29T08:43:51.733Z,20.50
2018-04-29T08:46:19.232Z,20.60
2018-04-29T08:48:46.770Z,20.60
2018-04-29T08:51:15.005Z,20.70
2018-04-29T08:53:43.297Z,20.70
2018-04-29T08:56:10.749Z,20.80
2018-04-29T08:58:41.586Z,20.90
2018-04-29T09:01:10.078Z,21.00
2018-04-29T09:03:38.222Z,21.00
2018-04-29T09:06:05.596Z,21.10
2018-04-29T09:08:33.107Z,21.20
2018-04-29T09:11:00.717Z,21.20
2018-04-29T09:13:28.180Z,21.30
2018-04-29T09:16:03.781Z,21.40
2018-04-29T09:18:31.269Z,21.40
2018-04-29T09:20:58.769Z,21.50
2018-04-29T09:23:26.222Z,21.60
2018-04-29T09:25:53.709Z,21.70
2018-04-29T09:28:22.107Z,21.80
2018-04-29T09:30:49.597Z,21.90
2018-04-29T09:33:17.092Z,21.90
2018-04-29T09:35:44.818Z,22.00
2018-04-29T09:38:12.625Z,22.00
2018-04-29T09:40:40.111Z,22.20
2018-04-29T09:43:07.599Z,22.30
2018-04-29T09:45:35.058Z,22.30
2018-04-29T09:48:03.324Z,22.30
2018-04-29T09:50:31.706Z,22.20
2018-04-29T09:53:00.852Z,22.20
2018-04-29T09:55:28.333Z,22.20
2018-04-29T09:57:55.887Z,22.30
2018-04-29T10:00:27.148Z,22.40
2018-04-29T10:03:02.061Z,22.60
2018-04-29T10:05:39.200Z,22.50
2018-04-29T10:08:08.354Z,22.80
2018-04-29T10:10:35.843Z,22.70
2018-04-29T10:13:03.323Z,22.80
2018-04-29T10:15:33.555Z,22.90
2018-04-29T10:18:01.057Z,23.00
2018-04-29T10:20:28.631Z,23.00
2018-04-29T10:22:56.117Z,23.10
2018-04-29T10:25:23.579Z,23.10
2018-04-29T10:27:51.988Z,23.10
2018-04-29T10:30:22.380Z,23.10
2018-04-29T10:32:49.943Z,23.10
2018-04-29T10:35:17.423Z,23.00
2018-04-29T10:37:44.975Z,23.00
2018-04-29T10:40:12.442Z,23.00
2018-04-29T10:42:39.951Z,23.10
2018-04-29T10:45:08.205Z,23.20
2018-04-29T10:47:39.865Z,23.30
2018-04-29T10:50:07.369Z,23.30
2018-04-29T10:52:34.922Z,23.40
2018-04-29T10:55:02.332Z,23.40
2018-04-29T10:57:29.800Z,23.50
2018-04-29T10:59:57.306Z,23.50
2018-04-29T11:02:29.501Z,23.70
2018-04-29T11:04:56.966Z,23.60
2018-04-29T11:07:24.492Z,23.70
2018-04-29T11:09:51.969Z,23.80
2018-04-29T11:12:20.341Z,23.80
2018-04-29T11:14:47.909Z,23.90
2018-04-29T11:17:15.624Z,23.90
2018-04-29T11:19:43.136Z,24.00
2018-04-29T11:22:10.696Z,24.00
2018-04-29T11:24:38.107Z,24.10
2018-04-29T11:27:05.566Z,24.10
2018-04-29T11:29:33.026Z,24.10
2018-04-29T11:32:03.788Z,24.20
2018-04-29T11:34:31.583Z,24.40
2018-04-29T11:36:59.127Z,24.40
2018-04-29T11:39:26.625Z,24.40
2018-04-29T11:41:54.097Z,24.40
2018-04-29T11:44:21.601Z,24.50
2018-04-29T11:46:52.658Z,24.70
2018-04-29T11:49:20.192Z,24.70
2018-04-29T11:51:47.677Z,24.80
2018-04-29T11:54:15.173Z,24.90
2018-04-29T11:56:43.916Z,25.10
2018-04-29T11:59:11.436Z,25.10
2018-04-29T12:01:42.492Z,25.10
2018-04-29T12:04:09.949Z,25.20
2018-04-29T12:06:38.396Z,25.40
2018-04-29T12:09:05.882Z,25.40
2018-04-29T12:11:33.373Z,25.30
2018-04-29T12:14:00.849Z,25.40
2018-04-29T12:16:28.342Z,25.40
2018-04-29T12:18:59.449Z,25.50
2018-04-29T12:21:27.713Z,25.50
2018-04-29T12:23:55.253Z,25.60
2018-04-29T12:26:22.753Z,25.70
2018-04-29T12:28:51.017Z,25.70
2018-04-29T12:31:18.493Z,25.70
2018-04-29T12:33:46.975Z,25.80
2018-04-29T12:36:14.409Z,25.90
2018-04-29T12:38:41.882Z,25.90
2018-04-29T12:41:09.399Z,25.90
2018-04-29T12:43:36.969Z,25.90
2018-04-29T12:46:04.446Z,25.80
2018-04-29T12:48:31.904Z,25.70
2018-04-29T12:50:59.377Z,25.60
2018-04-29T12:53:30.184Z,25.70
2018-04-29T12:55:57.637Z,25.70
2018-04-29T12:58:25.264Z,25.70
2018-04-29T13:00:52.726Z,25.70
2018-04-29T13:03:20.209Z,25.80
2018-04-29T13:05:47.721Z,25.80
2018-04-29T13:08:15.189Z,25.90
2018-04-29T13:10:42.646Z,25.90
2018-04-29T13:13:10.132Z,26.00
2018-04-29T13:15:37.642Z,26.10
2018-04-29T13:18:05.056Z,26.20
2018-04-29T13:20:32.528Z,26.10
2018-04-29T13:23:00.040Z,25.90
2018-04-29T13:25:28.391Z,25.90
2018-04-29T13:27:55.857Z,25.80
2018-04-29T13:30:23.356Z,25.90
2018-04-29T13:32:50.841Z,26.00
2018-04-29T13:35:19.067Z,26.10
2018-04-29T13:37:47.480Z,26.00
2018-04-29T13:40:14.942Z,26.20
2018-04-29T13:42:42.423Z,26.20
2018-04-29T13:45:09.908Z,26.30
2018-04-29T13:47:37.370Z,26.40
2018-04-29T13:50:05.103Z,26.50
2018-04-29T13:52:33.370Z,26.30
2018-04-29T13:55:01.338Z,26.30
2018-04-29T13:57:28.827Z,26.30
2018-04-29T13:59:56.283Z,26.40
2018-04-29T14:02:23.798Z,26.50
2018-04-29T14:04:56.017Z,26.70
2018-04-29T14:07:23.522Z,26.80
2018-04-29T14:09:50.996Z,26.90
2018-04-29T14:12:18.566Z,27.00
2018-04-29T14:14:46.067Z,27.00
2018-04-29T14:17:13.884Z,27.00
2018-04-29T14:19:41.538Z,27.10
2018-04-29T14:22:13.682Z,27.10
2018-04-29T14:24:41.256Z,27.20
2018-04-29T14:27:08.736Z,27.30
2018-04-29T14:29:36.246Z,27.40
2018-04-29T14:32:05.473Z,27.50
2018-04-29T14:34:36.634Z,27.50
2018-04-29T14:37:04.090Z,27.80
2018-04-29T14:39:32.547Z,28.30
2018-04-29T14:42:00.048Z,28.20
2018-04-29T14:44:27.523Z,28.30
2018-04-29T14:46:55.029Z,28.40
2018-04-29T14:49:22.492Z,28.40
2018-04-29T14:52:01.133Z,28.60
2018-04-29T14:54:28.656Z,28.60
2018-04-29T14:56:56.139Z,28.70
2018-04-29T14:59:23.630Z,28.70
2018-04-29T15:01:51.154Z,28.60
2018-04-29T15:04:18.634Z,28.40
2018-04-29T15:06:53.276Z,28.10
2018-04-29T15:09:21.060Z,27.80
2018-04-29T15:11:48.548Z,27.70
2018-04-29T15:14:16.777Z,27.70
2018-04-29T15:16:44.318Z,27.60
2018-04-29T15:19:11.995Z,27.40
2018-04-29T15:21:44.507Z,27.10
2018-04-29T15:24:11.988Z,27.10
2018-04-29T15:26:39.529Z,27.00
2018-04-29T15:29:07.010Z,27.00
2018-04-29T15:31:35.677Z,27.10
2018-04-29T15:34:03.133Z,27.20
2018-04-29T15:36:34.652Z,27.30
2018-04-29T15:39:02.232Z,27.20
2018-04-29T15:41:30.915Z,27.40
2018-04-29T15:43:58.406Z,27.40
2018-04-29T15:46:26.694Z,27.40
2018-04-29T15:48:54.272Z,27.40
2018-04-29T15:51:21.731Z,27.50
2018-04-29T15:53:49.223Z,27.50
2018-04-29T15:56:16.706Z,27.40
2018-04-29T15:58:45.116Z,27.10
2018-04-29T16:01:12.741Z,27.10
2018-04-29T16:03:40.287Z,26.90
2018-04-29T16:06:11.340Z,26.90
2018-04-29T16:08:38.800Z,26.90
2018-04-29T16:11:06.351Z,27.00
2018-04-29T16:13:33.820Z,27.00
2018-04-29T16:16:01.311Z,27.10
2018-04-29T16:18:28.801Z,27.10
2018-04-29T16:20:56.264Z,27.20
2018-04-29T16:23:27.225Z,27.10
2018-04-29T16:25:54.708Z,27.20
2018-04-29T16:28:22.185Z,27.20
2018-04-29T16:30:49.668Z,27.10
2018-04-29T16:33:17.256Z,27.10
2018-04-29T16:35:45.527Z,26.90
2018-04-29T16:38:16.201Z,26.90
2018-04-29T16:40:43.622Z,26.80
2018-04-29T16:43:11.672Z,26.70
2018-04-29T16:45:39.160Z,26.70
2018-04-29T16:48:06.685Z,27.20
2018-04-29T16:50:34.277Z,27.90
2018-04-29T16:53:09.446Z,28.80
2018-04-29T16:55:37.236Z,28.80
2018-04-29T16:58:04.706Z,29.50
2018-04-29T17:00:32.195Z,29.90
2018-04-29T17:02:59.670Z,30.20
2018-04-29T17:05:27.199Z,30.20
2018-04-29T17:08:02.074Z,30.10
2018-04-29T17:10:29.527Z,30.00
2018-04-29T17:12:57.015Z,29.70
2018-04-29T17:15:24.481Z,29.50
2018-04-29T17:17:51.972Z,29.50
2018-04-29T17:20:19.459Z,29.40
2018-04-29T17:22:47.008Z,29.20
2018-04-29T17:25:14.490Z,29.00
2018-04-29T17:27:41.962Z,28.90
2018-04-29T17:30:09.457Z,28.80
2018-04-29T17:32:36.926Z,28.80
2018-04-29T17:35:05.243Z,28.70
2018-04-29T17:37:36.035Z,28.50
2018-04-29T17:40:04.267Z,28.30
2018-04-29T17:42:31.812Z,28.30
2018-04-29T17:45:01.016Z,28.10
2018-04-29T17:47:28.502Z,28.10
2018-04-29T17:49:55.978Z,27.70
2018-04-29T17:52:27.726Z,27.40
2018-04-29T17:54:55.250Z,27.00
2018-04-29T17:57:23.765Z,26.20
2018-04-29T17:59:51.222Z,26.10
2018-04-29T18:02:21.109Z,25.50
2018-04-29T18:04:48.618Z,25.50
2018-04-29T18:07:16.248Z,25.20
2018-04-29T18:09:45.573Z,24.60
2018-04-29T18:12:14.764Z,24.40
2018-04-29T18:14:42.294Z,24.40
2018-04-29T18:17:09.781Z,24.20
2018-04-29T18:19:37.293Z,24.00
2018-04-29T18:22:04.774Z,23.90
2018-04-29T18:24:32.241Z,23.70
2018-04-29T18:26:59.727Z,23.60
2018-04-29T18:29:28.904Z,23.40
2018-04-29T18:31:56.446Z,23.40
2018-04-29T18:34:23.995Z,23.30
2018-04-29T18:36:51.604Z,23.20
2018-04-29T18:39:19.181Z,23.10
2018-04-29T18:41:47.562Z,22.90
2018-04-29T18:44:15.046Z,22.80
2018-04-29T18:46:42.530Z,22.70
2018-04-29T18:49:10.020Z,22.60
2018-04-29T18:51:37.525Z,22.50
2018-04-29T18:54:04.979Z,22.40
2018-04-29T18:56:32.463Z,22.30
2018-04-29T18:59:01.609Z,22.10
2018-04-29T19:01:29.119Z,22.00
2018-04-29T19:03:56.620Z,21.90
2018-04-29T19:06:24.111Z,21.80
2018-04-29T19:08:51.575Z,21.80
2018-04-29T19:11:19.095Z,21.70
2018-04-29T19:13:46.556Z,21.60
2018-04-29T19:16:14.056Z,21.50
2018-04-29T19:18:41.530Z,21.50
2018-04-29T19:21:09.652Z,21.50
2018-04-29T19:23:37.148Z,21.40
2018-04-29T19:26:04.748Z,21.40
2018-04-29T19:28:32.286Z,21.30
2018-04-29T19:31:01.418Z,21.20
2018-04-29T19:33:28.949Z,21.20
2018-04-29T19:35:56.448Z,21.20
2018-04-29T19:38:24.032Z,21.10
2018-04-29T19:40:52.368Z,20.70
2018-04-29T19:43:19.933Z,20.70
2018-04-29T19:45:48.442Z,20.60
2018-04-29T19:48:15.984Z,20.60
2018-04-29T19:50:43.565Z,20.70
2018-04-29T19:53:11.082Z,20.60
2018-04-29T19:55:38.602Z,20.60
2018-04-29T19:58:06.106Z,20.60
2018-04-29T20:00:33.615Z,20.40
2018-04-29T20:03:01.571Z,20.40
2018-04-29T20:05:29.049Z,20.30
2018-04-29T20:07:56.566Z,20.20
2018-04-29T20:10:24.087Z,20.10
2018-04-29T20:12:51.584Z,20.00
2018-04-29T20:15:19.081Z,20.00
2018-04-29T20:17:46.845Z,19.90
2018-04-29T20:20:14.377Z,19.80
2018-04-29T20:22:42.090Z,19.80
2018-04-29T20:25:10.198Z,19.70
2018-04-29T20:27:37.678Z,19.70
2018-04-29T20:30:05.434Z,19.70
2018-04-29T20:32:47.625Z,19.60
2018-04-29T20:35:15.146Z,19.60
2018-04-29T20:37:43.478Z,19.60
2018-04-29T20:40:16.288Z,19.60
2018-04-29T20:42:47.976Z,19.60
2018-04-29T20:45:15.592Z,19.60
2018-04-29T20:47:43.836Z,19.50
2018-04-29T20:50:11.329Z,19.50
2018-04-29T20:52:38.824Z,19.40
2018-04-29T20:55:06.883Z,19.30
2018-04-29T20:57:37.570Z,19.10
2018-04-29T21:00:05.021Z,19.00
2018-04-29T21:02:32.510Z,18.90
2018-04-29T21:04:59.957Z,18.80
2018-04-29T21:07:27.473Z,18.60
2018-04-29T21:09:54.957Z,18.60
2018-04-29T21:12:25.692Z,18.50
2018-04-29T21:14:53.190Z,18.30
2018-04-29T21:17:21.767Z,18.20
2018-04-29T21:19:50.022Z,18.10
2018-04-29T21:22:17.787Z,18.10
2018-04-29T21:24:45.391Z,18.00
2018-04-29T21:27:17.431Z,17.90
2018-04-29T21:29:46.585Z,17.60
2018-04-29T21:32:14.082Z,17.50
2018-04-29T21:34:41.626Z,17.60
2018-04-29T21:37:09.113Z,17.60
2018-04-29T21:39:36.601Z,17.60
2018-04-29T21:42:16.192Z,17.60
2018-04-29T21:44:43.668Z,17.60
2018-04-29T21:47:11.869Z,17.70
2018-04-29T21:49:39.348Z,17.70
2018-04-29T21:52:06.918Z,17.70
2018-04-29T21:54:34.372Z,17.60
2018-04-29T21:57:05.217Z,17.40
2018-04-29T21:59:32.686Z,17.20
2018-04-29T22:02:00.342Z,17.00
2018-04-29T22:04:27.885Z,16.90
2018-04-29T22:06:55.705Z,17.00
2018-04-29T22:09:23.160Z,16.90
2018-04-29T22:11:54.174Z,16.80
2018-04-29T22:14:24.795Z,16.80
2018-04-29T22:16:52.292Z,16.80
2018-04-29T22:19:21.469Z,16.60
2018-04-29T22:21:48.928Z,16.60
2018-04-29T22:24:16.425Z,16.50
2018-04-29T22:26:43.899Z,16.40
2018-04-29T22:29:15.374Z,16.40
2018-04-29T22:31:42.848Z,16.20
2018-04-29T22:34:10.407Z,16.20
2018-04-29T22:36:38.646Z,16.30
2018-04-29T22:39:06.109Z,16.20
2018-04-29T22:41:33.880Z,16.50
2018-04-29T22:44:01.373Z,16.70
2018-04-29T22:46:29.630Z,16.80
2018-04-29T22:48:57.097Z,16.80
2018-04-29T22:51:25.360Z,16.60
2018-04-29T22:53:52.828Z,16.50
2018-04-29T22:56:20.285Z,16.40
2018-04-29T22:58:52.336Z,16.30
2018-04-29T23:01:19.778Z,16.20
2018-04-29T23:03:47.266Z,16.10
2018-04-29T23:06:14.737Z,16.10
2018-04-29T23:08:42.187Z,16.20
2018-04-29T23:11:09.742Z,16.40
2018-04-29T23:13:39.025Z,16.50
2018-04-29T23:16:07.281Z,16.30
2018-04-29T23:18:34.777Z,16.30
2018-04-29T23:21:03.055Z,16.20
2018-04-29T23:23:30.513Z,16.20
2018-04-29T23:25:57.999Z,16.10
2018-04-29T23:28:29.245Z,16.00
2018-04-29T23:30:56.719Z,15.90
2018-04-29T23:33:24.216Z,16.10
2018-04-29T23:35:52.586Z,16.30
2018-04-29T23:38:20.061Z,16.40
2018-04-29T23:40:47.563Z,16.30
2018-04-29T23:43:15.045Z,16.30
2018-04-29T23:45:42.530Z,16.30
2018-04-29T23:48:10.027Z,16.20
2018-04-29T23:50:37.468Z,16.20
2018-04-29T23:53:04.929Z,16.40
2018-04-29T23:55:32.409Z,16.60
2018-04-29T23:58:00.501Z,16.60
